Etusivu
METAR-TAF:

METAR-TAF

Lentoasemat :

Henri Coandăn lentoasema

Bukarest, Romania

Leveyspiiri: 44-33N, Pituuspiiri: 026-06E, korkeus merenpinnasta: 95 m

Tämänhetkinen sää

Tämä raportti tehtiin 17 minuuttia sitten, kello 10.00 UTC
Tuuli 8 kn idästä, vaihdellen koillisen ja idän/kaakon välillä
Lämpötila 31°C
Kosteus 38%
Ilmanpaine 1014 hPa
Näkyvyys 10 km tai enemmän
ei pilviä alle 1500 m:ssä eikä cumulonimbus-pilviä

METAR: LROP 161000Z 08008KT 040V120 CAVOK 31/15 Q1014 NOSIG

Aika: 13:17 (10:17 UTC)

Sääennuste

Tämä raportti tehtiin 5 tuntia ja 17 minuuttia sitten, kello 05.00 UTC
Ennuste voimassa 16. päivästä klo 06 UTC - 17. päivään klo 06 UTC
Tuuli 8 kn pohjoisesta/koillisesta
Näkyvyys 10 km tai enemmän
ei pilviä alle 1500 m:ssä eikä cumulonimbus-pilviä

TAF: LROP 160500Z 1606/1706 03008KT CAVOK

Säähavainnot ja -ennusteet yli 4000 lentoasemalta (METAR- ja TAF-raportit).

Käytössä olevat sääasemat on merkitty karttaan keltaisilla ja punaisilla pisteillä.

Aseta hiiri pisteen päälle nähdäksesi sääaseman nimen.

Klikkaa sitten nähdäksesi säähavainnot ja -ennusteet.

Kartan vaihtaminen: klikkaa mustalla rastilla varustettuja vihreitä pisteitä, niin voit zoomata sisään; viivalla varustettua vihreää pistettä, niin voit zoomata ulos tai vihreitä nuolia, niin pääset viereisille kartoille.


METAR-TAF: